sensor_id;sensor_type;location;lat;lon;timestamp;pressure;altitude;pressure_sealevel;temperature;humidity
52653;BME280;39353;42.864;12.014;2023-12-07T00:00:08;97430.98;;;21.39;47.37
52653;BME280;39353;42.864;12.014;2023-12-07T00:02:55;97430.04;;;21.37;47.26
52653;BME280;39353;42.864;12.014;2023-12-07T00:05:21;97431.62;;;21.35;47.20
52653;BME280;39353;42.864;12.014;2023-12-07T00:07:47;97429.13;;;21.33;47.29
52653;BME280;39353;42.864;12.014;2023-12-07T00:10:13;97432.19;;;21.31;47.36
52653;BME280;39353;42.864;12.014;2023-12-07T00:12:41;97441.19;;;21.29;47.39
52653;BME280;39353;42.864;12.014;2023-12-07T00:15:07;97443.04;;;21.26;47.41
52653;BME280;39353;42.864;12.014;2023-12-07T00:17:34;97445.61;;;21.25;47.44
52653;BME280;39353;42.864;12.014;2023-12-07T00:20:00;97443.04;;;21.22;47.39
52653;BME280;39353;42.864;12.014;2023-12-07T00:22:26;97442.30;;;21.20;47.41
52653;BME280;39353;42.864;12.014;2023-12-07T00:24:54;97438.39;;;21.18;47.53
52653;BME280;39353;42.864;12.014;2023-12-07T00:27:20;97439.94;;;21.17;47.61
52653;BME280;39353;42.864;12.014;2023-12-07T00:29:47;97444.56;;;21.15;47.66
52653;BME280;39353;42.864;12.014;2023-12-07T00:32:13;97443.88;;;21.13;47.58
52653;BME280;39353;42.864;12.014;2023-12-07T00:34:39;97444.77;;;21.12;47.58
52653;BME280;39353;42.864;12.014;2023-12-07T00:37:05;97441.17;;;21.10;47.73
52653;BME280;39353;42.864;12.014;2023-12-07T00:39:31;97444.50;;;21.09;47.63
52653;BME280;39353;42.864;12.014;2023-12-07T00:41:58;97450.83;;;21.07;47.72
52653;BME280;39353;42.864;12.014;2023-12-07T00:44:24;97448.01;;;21.05;47.76
52653;BME280;39353;42.864;12.014;2023-12-07T00:46:50;97449.80;;;21.03;47.86
52653;BME280;39353;42.864;12.014;2023-12-07T00:49:16;97446.70;;;21.02;47.70
52653;BME280;39353;42.864;12.014;2023-12-07T00:51:42;97449.33;;;21.00;47.89
52653;BME280;39353;42.864;12.014;2023-12-07T00:54:09;97449.34;;;20.98;47.89
52653;BME280;39353;42.864;12.014;2023-12-07T00:56:35;97454.77;;;20.97;47.84
52653;BME280;39353;42.864;12.014;2023-12-07T00:59:03;97457.40;;;20.94;47.96
52653;BME280;39353;42.864;12.014;2023-12-07T01:01:29;97456.59;;;20.92;47.96
52653;BME280;39353;42.864;12.014;2023-12-07T01:03:55;97455.23;;;20.89;47.89
52653;BME280;39353;42.864;12.014;2023-12-07T01:06:22;97452.23;;;20.89;48.02
52653;BME280;39353;42.864;12.014;2023-12-07T01:08:48;97448.52;;;20.87;48.09
52653;BME280;39353;42.864;12.014;2023-12-07T01:11:14;97450.63;;;20.84;48.16
52653;BME280;39353;42.864;12.014;2023-12-07T01:13:40;97454.23;;;20.85;48.04
52653;BME280;39353;42.864;12.014;2023-12-07T01:16:06;97456.20;;;20.84;48.06
52653;BME280;39353;42.864;12.014;2023-12-07T01:18:32;97452.82;;;20.83;48.15
52653;BME280;39353;42.864;12.014;2023-12-07T01:20:59;97452.76;;;20.81;48.21
52653;BME280;39353;42.864;12.014;2023-12-07T01:23:25;97450.98;;;20.80;48.31
52653;BME280;39353;42.864;12.014;2023-12-07T01:25:51;97447.14;;;20.79;48.21
52653;BME280;39353;42.864;12.014;2023-12-07T01:28:17;97450.59;;;20.77;48.27
52653;BME280;39353;42.864;12.014;2023-12-07T01:30:43;97454.58;;;20.76;48.25
52653;BME280;39353;42.864;12.014;2023-12-07T01:33:09;97449.45;;;20.75;48.32
52653;BME280;39353;42.864;12.014;2023-12-07T01:35:35;97449.00;;;20.74;48.23
52653;BME280;39353;42.864;12.014;2023-12-07T01:38:02;97447.13;;;20.74;48.27
52653;BME280;39353;42.864;12.014;2023-12-07T01:40:28;97446.75;;;20.73;48.27
52653;BME280;39353;42.864;12.014;2023-12-07T01:42:56;97446.56;;;20.72;48.30
52653;BME280;39353;42.864;12.014;2023-12-07T01:45:22;97442.09;;;20.70;48.18
52653;BME280;39353;42.864;12.014;2023-12-07T01:47:51;97449.77;;;20.69;48.30
52653;BME280;39353;42.864;12.014;2023-12-07T01:50:21;97457.19;;;20.68;48.38
52653;BME280;39353;42.864;12.014;2023-12-07T01:52:54;97454.39;;;20.67;48.33
52653;BME280;39353;42.864;12.014;2023-12-07T01:55:24;97456.80;;;20.65;48.51
52653;BME280;39353;42.864;12.014;2023-12-07T01:57:50;97457.70;;;20.64;48.48
52653;BME280;39353;42.864;12.014;2023-12-07T02:00:17;97460.13;;;20.64;48.48
52653;BME280;39353;42.864;12.014;2023-12-07T02:02:44;97461.62;;;20.63;48.56
52653;BME280;39353;42.864;12.014;2023-12-07T02:05:13;97468.30;;;20.60;48.60
52653;BME280;39353;42.864;12.014;2023-12-07T02:07:43;97470.36;;;20.60;48.47
52653;BME280;39353;42.864;12.014;2023-12-07T02:10:12;97475.87;;;20.58;48.59
52653;BME280;39353;42.864;12.014;2023-12-07T02:12:40;97471.31;;;20.57;48.58
52653;BME280;39353;42.864;12.014;2023-12-07T02:15:07;97473.23;;;20.58;48.57
52653;BME280;39353;42.864;12.014;2023-12-07T02:17:55;97473.73;;;20.58;48.63
52653;BME280;39353;42.864;12.014;2023-12-07T02:20:30;97476.59;;;20.57;48.65
52653;BME280;39353;42.864;12.014;2023-12-07T02:23:01;97481.92;;;20.57;48.62
52653;BME280;39353;42.864;12.014;2023-12-07T02:25:48;97478.84;;;20.55;48.57
52653;BME280;39353;42.864;12.014;2023-12-07T02:28:17;97483.66;;;20.55;48.66
52653;BME280;39353;42.864;12.014;2023-12-07T02:30:44;97485.72;;;20.54;48.55
52653;BME280;39353;42.864;12.014;2023-12-07T02:33:11;97481.79;;;20.54;48.65
52653;BME280;39353;42.864;12.014;2023-12-07T02:35:39;97482.08;;;20.53;48.69
52653;BME280;39353;42.864;12.014;2023-12-07T02:38:07;97482.53;;;20.51;48.65
52653;BME280;39353;42.864;12.014;2023-12-07T02:40:35;97482.07;;;20.50;48.80
52653;BME280;39353;42.864;12.014;2023-12-07T02:43:03;97485.02;;;20.50;48.67
52653;BME280;39353;42.864;12.014;2023-12-07T02:45:30;97483.84;;;20.50;48.74
52653;BME280;39353;42.864;12.014;2023-12-07T02:47:57;97484.49;;;20.48;48.79
52653;BME280;39353;42.864;12.014;2023-12-07T02:50:24;97483.70;;;20.47;48.77
52653;BME280;39353;42.864;12.014;2023-12-07T02:52:50;97488.56;;;20.47;48.60
52653;BME280;39353;42.864;12.014;2023-12-07T02:55:16;97493.09;;;20.47;48.69
52653;BME280;39353;42.864;12.014;2023-12-07T02:57:43;97496.45;;;20.47;48.89
52653;BME280;39353;42.864;12.014;2023-12-07T03:00:09;97499.30;;;20.46;48.84
52653;BME280;39353;42.864;12.014;2023-12-07T03:02:39;97499.90;;;20.46;48.81
52653;BME280;39353;42.864;12.014;2023-12-07T03:05:07;97506.41;;;20.45;48.74
52653;BME280;39353;42.864;12.014;2023-12-07T03:07:33;97508.25;;;20.44;48.77
52653;BME280;39353;42.864;12.014;2023-12-07T03:10:00;97510.23;;;20.43;48.74
52653;BME280;39353;42.864;12.014;2023-12-07T03:12:26;97514.02;;;20.42;48.76
52653;BME280;39353;42.864;12.014;2023-12-07T03:14:52;97516.42;;;20.41;48.81
52653;BME280;39353;42.864;12.014;2023-12-07T03:17:19;97522.65;;;20.42;48.76
52653;BME280;39353;42.864;12.014;2023-12-07T03:19:45;97524.90;;;20.40;48.85
52653;BME280;39353;42.864;12.014;2023-12-07T03:22:11;97524.59;;;20.38;48.80
52653;BME280;39353;42.864;12.014;2023-12-07T03:24:40;97523.52;;;20.37;48.88
52653;BME280;39353;42.864;12.014;2023-12-07T03:27:09;97530.25;;;20.36;48.92
52653;BME280;39353;42.864;12.014;2023-12-07T03:29:35;97529.20;;;20.36;48.91
52653;BME280;39353;42.864;12.014;2023-12-07T03:32:02;97522.96;;;20.35;48.82
52653;BME280;39353;42.864;12.014;2023-12-07T03:34:28;97532.77;;;20.34;48.77
52653;BME280;39353;42.864;12.014;2023-12-07T03:36:54;97533.08;;;20.34;48.77
52653;BME280;39353;42.864;12.014;2023-12-07T03:39:20;97532.37;;;20.33;48.84
52653;BME280;39353;42.864;12.014;2023-12-07T03:41:51;97531.80;;;20.32;48.99
52653;BME280;39353;42.864;12.014;2023-12-07T03:44:17;97534.10;;;20.31;48.94
52653;BME280;39353;42.864;12.014;2023-12-07T03:46:44;97532.17;;;20.31;49.00
52653;BME280;39353;42.864;12.014;2023-12-07T03:49:10;97526.59;;;20.30;49.01
52653;BME280;39353;42.864;12.014;2023-12-07T03:51:37;97527.86;;;20.29;48.93
52653;BME280;39353;42.864;12.014;2023-12-07T03:54:03;97527.67;;;20.28;49.02
52653;BME280;39353;42.864;12.014;2023-12-07T03:56:32;97531.48;;;20.26;48.94
52653;BME280;39353;42.864;12.014;2023-12-07T03:58:59;97529.47;;;20.27;49.11
52653;BME280;39353;42.864;12.014;2023-12-07T04:01:26;97531.05;;;20.26;48.95
52653;BME280;39353;42.864;12.014;2023-12-07T04:03:55;97531.17;;;20.25;48.92
52653;BME280;39353;42.864;12.014;2023-12-07T04:06:24;97538.69;;;20.25;49.04
52653;BME280;39353;42.864;12.014;2023-12-07T04:08:50;97545.34;;;20.25;49.01
52653;BME280;39353;42.864;12.014;2023-12-07T04:11:17;97546.73;;;20.24;49.04
52653;BME280;39353;42.864;12.014;2023-12-07T04:13:45;97546.36;;;20.24;49.02
52653;BME280;39353;42.864;12.014;2023-12-07T04:16:11;97542.09;;;20.24;49.16
52653;BME280;39353;42.864;12.014;2023-12-07T04:18:37;97542.60;;;20.22;49.06
52653;BME280;39353;42.864;12.014;2023-12-07T04:21:04;97539.50;;;20.21;49.11
52653;BME280;39353;42.864;12.014;2023-12-07T04:23:31;97544.13;;;20.21;49.23
52653;BME280;39353;42.864;12.014;2023-12-07T04:25:58;97542.86;;;20.21;49.17
52653;BME280;39353;42.864;12.014;2023-12-07T04:28:24;97540.27;;;20.20;49.09
52653;BME280;39353;42.864;12.014;2023-12-07T04:30:50;97545.00;;;20.20;49.16
52653;BME280;39353;42.864;12.014;2023-12-07T04:33:16;97546.02;;;20.19;49.19
52653;BME280;39353;42.864;12.014;2023-12-07T04:35:42;97544.34;;;20.18;49.07
52653;BME280;39353;42.864;12.014;2023-12-07T04:38:09;97544.93;;;20.18;49.10
52653;BME280;39353;42.864;12.014;2023-12-07T04:40:35;97550.84;;;20.17;49.16
52653;BME280;39353;42.864;12.014;2023-12-07T04:43:01;97552.98;;;20.16;49.29
52653;BME280;39353;42.864;12.014;2023-12-07T04:45:27;97551.35;;;20.16;49.28
52653;BME280;39353;42.864;12.014;2023-12-07T04:47:53;97550.61;;;20.15;49.24
52653;BME280;39353;42.864;12.014;2023-12-07T04:50:20;97553.92;;;20.15;49.10
52653;BME280;39353;42.864;12.014;2023-12-07T04:52:46;97559.38;;;20.15;49.23
52653;BME280;39353;42.864;12.014;2023-12-07T04:55:13;97560.05;;;20.14;49.17
52653;BME280;39353;42.864;12.014;2023-12-07T04:57:39;97558.36;;;20.14;49.14
52653;BME280;39353;42.864;12.014;2023-12-07T05:00:05;97562.36;;;20.13;49.28
52653;BME280;39353;42.864;12.014;2023-12-07T05:02:32;97562.84;;;20.12;49.07
52653;BME280;39353;42.864;12.014;2023-12-07T05:04:58;97560.73;;;20.11;49.16
52653;BME280;39353;42.864;12.014;2023-12-07T05:07:25;97557.77;;;20.11;49.17
52653;BME280;39353;42.864;12.014;2023-12-07T05:09:51;97561.13;;;20.10;49.27
52653;BME280;39353;42.864;12.014;2023-12-07T05:12:17;97566.11;;;20.09;49.10
52653;BME280;39353;42.864;12.014;2023-12-07T05:14:44;97573.23;;;20.09;49.19
52653;BME280;39353;42.864;12.014;2023-12-07T05:17:10;97580.57;;;20.08;49.27
52653;BME280;39353;42.864;12.014;2023-12-07T05:19:36;97585.78;;;20.07;49.23
52653;BME280;39353;42.864;12.014;2023-12-07T05:22:03;97596.26;;;20.06;49.27
52653;BME280;39353;42.864;12.014;2023-12-07T05:24:30;97599.10;;;20.05;49.19
52653;BME280;39353;42.864;12.014;2023-12-07T05:26:58;97601.03;;;20.06;49.21
52653;BME280;39353;42.864;12.014;2023-12-07T05:29:24;97600.79;;;20.05;49.22
52653;BME280;39353;42.864;12.014;2023-12-07T05:31:50;97605.20;;;20.03;49.17
52653;BME280;39353;42.864;12.014;2023-12-07T05:34:17;97606.83;;;20.03;49.29
52653;BME280;39353;42.864;12.014;2023-12-07T05:36:44;97609.18;;;20.04;49.27
52653;BME280;39353;42.864;12.014;2023-12-07T05:39:10;97614.12;;;20.03;49.18
52653;BME280;39353;42.864;12.014;2023-12-07T05:41:36;97616.92;;;20.03;49.15
52653;BME280;39353;42.864;12.014;2023-12-07T05:44:03;97618.48;;;20.02;49.38
52653;BME280;39353;42.864;12.014;2023-12-07T05:46:30;97621.05;;;20.01;49.32
52653;BME280;39353;42.864;12.014;2023-12-07T05:48:56;97623.23;;;20.01;49.28
52653;BME280;39353;42.864;12.014;2023-12-07T05:51:23;97618.75;;;20.00;49.16
52653;BME280;39353;42.864;12.014;2023-12-07T05:53:50;97620.05;;;20.00;49.20
52653;BME280;39353;42.864;12.014;2023-12-07T05:56:19;97623.30;;;19.99;49.34
52653;BME280;39353;42.864;12.014;2023-12-07T05:58:46;97621.70;;;19.99;49.16
52653;BME280;39353;42.864;12.014;2023-12-07T06:01:17;97620.83;;;19.98;49.27
52653;BME280;39353;42.864;12.014;2023-12-07T06:03:44;97618.77;;;19.98;49.25
52653;BME280;39353;42.864;12.014;2023-12-07T06:06:11;97621.84;;;19.96;49.28
52653;BME280;39353;42.864;12.014;2023-12-07T06:08:38;97617.70;;;19.96;49.12
52653;BME280;39353;42.864;12.014;2023-12-07T06:11:04;97625.36;;;19.96;49.20
52653;BME280;39353;42.864;12.014;2023-12-07T06:13:30;97628.55;;;19.95;49.12
52653;BME280;39353;42.864;12.014;2023-12-07T06:15:57;97634.21;;;19.95;49.19
52653;BME280;39353;42.864;12.014;2023-12-07T06:18:23;97638.31;;;19.93;49.29
52653;BME280;39353;42.864;12.014;2023-12-07T06:20:49;97640.63;;;19.92;49.25
52653;BME280;39353;42.864;12.014;2023-12-07T06:23:15;97640.79;;;19.92;49.07
52653;BME280;39353;42.864;12.014;2023-12-07T06:25:42;97642.52;;;19.91;49.18
52653;BME280;39353;42.864;12.014;2023-12-07T06:28:08;97644.64;;;19.90;49.27
52653;BME280;39353;42.864;12.014;2023-12-07T06:30:34;97647.63;;;19.90;49.25
52653;BME280;39353;42.864;12.014;2023-12-07T06:33:00;97652.33;;;19.89;49.26
52653;BME280;39353;42.864;12.014;2023-12-07T06:35:27;97650.11;;;19.89;49.28
52653;BME280;39353;42.864;12.014;2023-12-07T06:37:53;97646.88;;;19.89;49.23
52653;BME280;39353;42.864;12.014;2023-12-07T06:40:19;97651.95;;;19.89;49.32
52653;BME280;39353;42.864;12.014;2023-12-07T06:42:46;97656.34;;;19.88;49.26
52653;BME280;39353;42.864;12.014;2023-12-07T06:45:12;97657.80;;;19.88;49.39
52653;BME280;39353;42.864;12.014;2023-12-07T06:47:43;97661.44;;;19.87;49.26
52653;BME280;39353;42.864;12.014;2023-12-07T06:50:10;97662.58;;;19.87;49.31
52653;BME280;39353;42.864;12.014;2023-12-07T06:52:37;97664.66;;;19.86;49.28
52653;BME280;39353;42.864;12.014;2023-12-07T06:55:04;97664.30;;;19.86;49.42
52653;BME280;39353;42.864;12.014;2023-12-07T06:57:31;97664.52;;;19.84;49.36
52653;BME280;39353;42.864;12.014;2023-12-07T06:59:57;97667.98;;;19.84;49.41
52653;BME280;39353;42.864;12.014;2023-12-07T07:02:24;97671.66;;;19.84;49.43
52653;BME280;39353;42.864;12.014;2023-12-07T07:04:50;97669.86;;;19.84;49.32
52653;BME280;39353;42.864;12.014;2023-12-07T07:07:16;97674.44;;;19.84;49.27
52653;BME280;39353;42.864;12.014;2023-12-07T07:09:42;97676.15;;;19.83;49.37
52653;BME280;39353;42.864;12.014;2023-12-07T07:12:08;97678.09;;;19.82;49.40
52653;BME280;39353;42.864;12.014;2023-12-07T07:14:35;97680.60;;;19.82;49.36
52653;BME280;39353;42.864;12.014;2023-12-07T07:17:01;97679.97;;;19.80;49.46
52653;BME280;39353;42.864;12.014;2023-12-07T07:19:27;97678.63;;;19.81;49.31
52653;BME280;39353;42.864;12.014;2023-12-07T07:21:53;97685.38;;;19.81;49.33
52653;BME280;39353;42.864;12.014;2023-12-07T07:24:20;97684.76;;;19.80;49.43
52653;BME280;39353;42.864;12.014;2023-12-07T07:26:46;97686.46;;;19.79;49.47
52653;BME280;39353;42.864;12.014;2023-12-07T07:29:13;97687.77;;;19.77;49.39
52653;BME280;39353;42.864;12.014;2023-12-07T07:31:39;97689.02;;;19.77;49.31
52653;BME280;39353;42.864;12.014;2023-12-07T07:34:05;97688.55;;;19.78;49.25
52653;BME280;39353;42.864;12.014;2023-12-07T07:36:31;97685.09;;;19.77;49.33
52653;BME280;39353;42.864;12.014;2023-12-07T07:38:58;97680.69;;;19.77;49.30
52653;BME280;39353;42.864;12.014;2023-12-07T07:41:24;97682.33;;;19.76;49.35
52653;BME280;39353;42.864;12.014;2023-12-07T07:43:51;97685.80;;;19.76;49.40
52653;BME280;39353;42.864;12.014;2023-12-07T07:46:17;97689.86;;;19.75;49.35
52653;BME280;39353;42.864;12.014;2023-12-07T07:48:43;97697.57;;;19.68;48.38
52653;BME280;39353;42.864;12.014;2023-12-07T07:51:09;97702.77;;;19.65;48.17
52653;BME280;39353;42.864;12.014;2023-12-07T07:53:35;97697.00;;;19.61;48.51
52653;BME280;39353;42.864;12.014;2023-12-07T07:56:02;97694.44;;;19.60;48.48
52653;BME280;39353;42.864;12.014;2023-12-07T07:58:28;97694.46;;;19.61;48.54
52653;BME280;39353;42.864;12.014;2023-12-07T08:00:55;97698.79;;;19.65;48.67
52653;BME280;39353;42.864;12.014;2023-12-07T08:03:22;97695.98;;;19.65;48.63
52653;BME280;39353;42.864;12.014;2023-12-07T08:05:48;97695.55;;;19.66;48.66
52653;BME280;39353;42.864;12.014;2023-12-07T08:08:14;97695.85;;;19.66;48.62
52653;BME280;39353;42.864;12.014;2023-12-07T08:10:40;97696.59;;;19.68;48.60
52653;BME280;39353;42.864;12.014;2023-12-07T08:13:07;97703.30;;;19.69;49.24
52653;BME280;39353;42.864;12.014;2023-12-07T08:15:34;97703.59;;;19.71;49.49
52653;BME280;39353;42.864;12.014;2023-12-07T08:18:01;97698.98;;;19.73;49.59
52653;BME280;39353;42.864;12.014;2023-12-07T08:20:28;97700.23;;;19.74;49.56
52653;BME280;39353;42.864;12.014;2023-12-07T08:22:54;97701.68;;;19.75;49.47
52653;BME280;39353;42.864;12.014;2023-12-07T08:25:24;97700.55;;;19.77;49.48
52653;BME280;39353;42.864;12.014;2023-12-07T08:27:50;97706.58;;;19.78;49.53
52653;BME280;39353;42.864;12.014;2023-12-07T08:30:18;97712.79;;;19.76;48.96
52653;BME280;39353;42.864;12.014;2023-12-07T08:32:45;97719.72;;;19.78;49.41
52653;BME280;39353;42.864;12.014;2023-12-07T08:35:11;97719.23;;;19.80;49.60
52653;BME280;39353;42.864;12.014;2023-12-07T08:37:38;97714.07;;;19.80;49.41
52653;BME280;39353;42.864;12.014;2023-12-07T08:40:08;97714.74;;;19.81;49.23
52653;BME280;39353;42.864;12.014;2023-12-07T08:42:37;97714.78;;;19.82;49.38
52653;BME280;39353;42.864;12.014;2023-12-07T08:45:04;97718.09;;;19.82;49.32
52653;BME280;39353;42.864;12.014;2023-12-07T08:47:31;97724.88;;;19.81;49.38
52653;BME280;39353;42.864;12.014;2023-12-07T08:49:57;97730.06;;;19.83;49.42
52653;BME280;39353;42.864;12.014;2023-12-07T08:52:24;97734.25;;;19.86;49.44
52653;BME280;39353;42.864;12.014;2023-12-07T08:54:50;97738.15;;;19.86;49.47
52653;BME280;39353;42.864;12.014;2023-12-07T08:57:18;97742.59;;;19.86;49.55
52653;BME280;39353;42.864;12.014;2023-12-07T08:59:44;97745.19;;;19.85;49.15
52653;BME280;39353;42.864;12.014;2023-12-07T09:02:10;97744.56;;;19.83;48.47
52653;BME280;39353;42.864;12.014;2023-12-07T09:04:38;97744.65;;;19.80;47.98
52653;BME280;39353;42.864;12.014;2023-12-07T09:07:08;97749.23;;;19.75;47.99
52653;BME280;39353;42.864;12.014;2023-12-07T09:09:35;97748.77;;;19.74;48.24
52653;BME280;39353;42.864;12.014;2023-12-07T09:12:01;97750.84;;;19.72;48.26
52653;BME280;39353;42.864;12.014;2023-12-07T09:14:28;97757.69;;;19.73;48.35
52653;BME280;39353;42.864;12.014;2023-12-07T09:16:54;97760.41;;;19.75;48.69
52653;BME280;39353;42.864;12.014;2023-12-07T09:19:20;97759.31;;;19.74;48.60
52653;BME280;39353;42.864;12.014;2023-12-07T09:21:46;97764.30;;;19.75;48.91
52653;BME280;39353;42.864;12.014;2023-12-07T09:24:13;97766.21;;;19.77;49.06
52653;BME280;39353;42.864;12.014;2023-12-07T09:26:40;97760.81;;;19.78;49.08
52653;BME280;39353;42.864;12.014;2023-12-07T09:29:06;97762.79;;;19.78;49.21
52653;BME280;39353;42.864;12.014;2023-12-07T09:31:32;97763.39;;;19.65;45.20
52653;BME280;39353;42.864;12.014;2023-12-07T09:33:59;97763.89;;;19.32;44.70
52653;BME280;39353;42.864;12.014;2023-12-07T09:36:25;97767.54;;;19.31;46.12
52653;BME280;39353;42.864;12.014;2023-12-07T09:38:54;97771.26;;;19.36;47.38
52653;BME280;39353;42.864;12.014;2023-12-07T09:41:20;97772.14;;;19.41;47.58
52653;BME280;39353;42.864;12.014;2023-12-07T09:43:47;97774.12;;;19.44;47.94
52653;BME280;39353;42.864;12.014;2023-12-07T09:46:14;97778.44;;;19.48;47.82
52653;BME280;39353;42.864;12.014;2023-12-07T09:48:43;97782.64;;;19.52;47.91
52653;BME280;39353;42.864;12.014;2023-12-07T09:51:10;97781.80;;;19.54;47.98
52653;BME280;39353;42.864;12.014;2023-12-07T09:53:39;97779.66;;;19.55;48.22
52653;BME280;39353;42.864;12.014;2023-12-07T09:56:06;97785.48;;;19.55;47.49
52653;BME280;39353;42.864;12.014;2023-12-07T09:58:33;97783.92;;;19.54;47.45
52653;BME280;39353;42.864;12.014;2023-12-07T10:00:59;97780.91;;;19.54;47.82
52653;BME280;39353;42.864;12.014;2023-12-07T10:03:26;97778.32;;;19.53;47.83
52653;BME280;39353;42.864;12.014;2023-12-07T10:05:54;97779.66;;;19.53;48.06
52653;BME280;39353;42.864;12.014;2023-12-07T10:08:26;97775.23;;;19.54;48.17
52653;BME280;39353;42.864;12.014;2023-12-07T10:11:14;97775.52;;;19.55;48.32
52653;BME280;39353;42.864;12.014;2023-12-07T10:13:41;97775.82;;;19.55;48.02
52653;BME280;39353;42.864;12.014;2023-12-07T10:16:13;97775.69;;;19.54;48.15
52653;BME280;39353;42.864;12.014;2023-12-07T10:18:41;97764.88;;;19.54;48.16
52653;BME280;39353;42.864;12.014;2023-12-07T10:21:08;97774.42;;;19.53;48.06
52653;BME280;39353;42.864;12.014;2023-12-07T10:23:40;97777.06;;;19.52;47.83
52653;BME280;39353;42.864;12.014;2023-12-07T10:26:07;97781.08;;;19.51;46.97
52653;BME280;39353;42.864;12.014;2023-12-07T10:28:35;97777.41;;;19.47;46.59
52653;BME280;39353;42.864;12.014;2023-12-07T10:31:08;97770.80;;;19.44;46.25
52653;BME280;39353;42.864;12.014;2023-12-07T10:33:34;97765.48;;;19.40;46.03
52653;BME280;39353;42.864;12.014;2023-12-07T10:36:03;97763.52;;;19.38;46.22
52653;BME280;39353;42.864;12.014;2023-12-07T10:38:30;97763.47;;;19.38;46.21
52653;BME280;39353;42.864;12.014;2023-12-07T10:41:05;97761.79;;;19.37;46.49
52653;BME280;39353;42.864;12.014;2023-12-07T10:43:37;97752.67;;;19.38;46.68
52653;BME280;39353;42.864;12.014;2023-12-07T10:46:09;97748.15;;;19.41;47.09
52653;BME280;39353;42.864;12.014;2023-12-07T10:48:36;97750.79;;;19.43;46.94
52653;BME280;39353;42.864;12.014;2023-12-07T10:51:07;97749.84;;;19.43;47.02
52653;BME280;39353;42.864;12.014;2023-12-07T10:53:40;97744.52;;;19.44;47.01
52653;BME280;39353;42.864;12.014;2023-12-07T10:56:15;97738.66;;;19.45;47.32
52653;BME280;39353;42.864;12.014;2023-12-07T10:58:43;97736.47;;;19.47;47.28
52653;BME280;39353;42.864;12.014;2023-12-07T11:01:11;97739.35;;;19.47;47.27
52653;BME280;39353;42.864;12.014;2023-12-07T11:03:43;97736.34;;;19.47;47.40
52653;BME280;39353;42.864;12.014;2023-12-07T11:06:10;97726.70;;;19.47;47.48
52653;BME280;39353;42.864;12.014;2023-12-07T11:08:43;97719.17;;;19.45;46.46
52653;BME280;39353;42.864;12.014;2023-12-07T11:14:02;97718.48;;;19.26;46.07
52653;BME280;39353;42.864;12.014;2023-12-07T11:16:30;97715.67;;;19.26;46.76
52653;BME280;39353;42.864;12.014;2023-12-07T11:18:57;97715.38;;;19.27;46.93
52653;BME280;39353;42.864;12.014;2023-12-07T11:21:24;97714.96;;;19.27;47.17
52653;BME280;39353;42.864;12.014;2023-12-07T11:23:50;97714.88;;;19.28;47.28
52653;BME280;39353;42.864;12.014;2023-12-07T11:26:20;97709.86;;;19.29;47.14
52653;BME280;39353;42.864;12.014;2023-12-07T11:28:46;97708.22;;;19.29;47.41
52653;BME280;39353;42.864;12.014;2023-12-07T11:31:13;97704.80;;;19.29;47.36
52653;BME280;39353;42.864;12.014;2023-12-07T11:33:39;97708.02;;;19.29;47.56
52653;BME280;39353;42.864;12.014;2023-12-07T11:36:10;97709.10;;;19.29;47.59
52653;BME280;39353;42.864;12.014;2023-12-07T11:41:29;97699.90;;;19.29;47.70
52653;BME280;39353;42.864;12.014;2023-12-07T11:43:58;97693.99;;;19.29;47.65
52653;BME280;39353;42.864;12.014;2023-12-07T11:46:25;97692.52;;;19.30;47.73
52653;BME280;39353;42.864;12.014;2023-12-07T11:48:51;97689.51;;;19.31;47.56
52653;BME280;39353;42.864;12.014;2023-12-07T11:51:18;97683.32;;;19.31;47.77
52653;BME280;39353;42.864;12.014;2023-12-07T11:53:44;97679.52;;;19.31;47.60
52653;BME280;39353;42.864;12.014;2023-12-07T11:56:11;97674.91;;;19.30;47.74
52653;BME280;39353;42.864;12.014;2023-12-07T11:58:39;97675.08;;;19.31;47.85
52653;BME280;39353;42.864;12.014;2023-12-07T12:01:10;97676.91;;;19.32;47.94
52653;BME280;39353;42.864;12.014;2023-12-07T12:03:37;97671.50;;;19.35;47.94
52653;BME280;39353;42.864;12.014;2023-12-07T12:06:06;97669.79;;;19.38;47.90
52653;BME280;39353;42.864;12.014;2023-12-07T12:08:40;97670.38;;;19.40;47.74
52653;BME280;39353;42.864;12.014;2023-12-07T12:11:11;97662.38;;;19.43;47.92
52653;BME280;39353;42.864;12.014;2023-12-07T12:13:38;97662.03;;;19.46;48.24
52653;BME280;39353;42.864;12.014;2023-12-07T12:16:05;97660.20;;;19.48;48.81
52653;BME280;39353;42.864;12.014;2023-12-07T12:18:33;97656.89;;;19.52;49.51
52653;BME280;39353;42.864;12.014;2023-12-07T12:21:00;97652.46;;;19.53;50.17
52653;BME280;39353;42.864;12.014;2023-12-07T12:23:26;97648.80;;;19.54;50.81
52653;BME280;39353;42.864;12.014;2023-12-07T12:25:53;97647.00;;;19.56;51.39
52653;BME280;39353;42.864;12.014;2023-12-07T12:28:21;97642.86;;;19.57;51.97
52653;BME280;39353;42.864;12.014;2023-12-07T12:30:50;97644.70;;;19.58;52.32
52653;BME280;39353;42.864;12.014;2023-12-07T12:33:17;97644.19;;;19.61;52.67
52653;BME280;39353;42.864;12.014;2023-12-07T12:35:44;97640.12;;;19.62;53.26
52653;BME280;39353;42.864;12.014;2023-12-07T12:38:11;97638.19;;;19.63;53.99
52653;BME280;39353;42.864;12.014;2023-12-07T12:40:38;97639.52;;;19.64;53.87
52653;BME280;39353;42.864;12.014;2023-12-07T12:43:05;97637.33;;;19.60;52.97
52653;BME280;39353;42.864;12.014;2023-12-07T12:45:33;97641.69;;;19.57;52.61
52653;BME280;39353;42.864;12.014;2023-12-07T12:47:59;97636.96;;;19.55;52.69
52653;BME280;39353;42.864;12.014;2023-12-07T12:50:36;97638.48;;;19.54;52.41
52653;BME280;39353;42.864;12.014;2023-12-07T12:53:11;97640.02;;;19.53;52.23
52653;BME280;39353;42.864;12.014;2023-12-07T12:55:39;97639.80;;;19.53;52.13